sensor_id;sensor_type;location;lat;lon;timestamp;pressure;altitude;pressure_sealevel;temperature;humidity
64895;BME280;51588;53.702;10.208;2023-11-21T00:01:09;100619.81;;;21.33;49.14
64895;BME280;51588;53.702;10.208;2023-11-21T00:03:36;100622.75;;;21.32;49.02
64895;BME280;51588;53.702;10.208;2023-11-21T00:06:03;100627.34;;;21.31;48.90
64895;BME280;51588;53.702;10.208;2023-11-21T00:08:31;100627.56;;;21.30;48.84
64895;BME280;51588;53.702;10.208;2023-11-21T00:10:57;100624.03;;;21.29;48.97
64895;BME280;51588;53.702;10.208;2023-11-21T00:13:28;100639.44;;;21.29;48.81
64895;BME280;51588;53.702;10.208;2023-11-21T00:15:55;100640.72;;;21.26;48.89
64895;BME280;51588;53.702;10.208;2023-11-21T00:18:21;100636.16;;;21.27;48.71
64895;BME280;51588;53.702;10.208;2023-11-21T00:20:50;100635.53;;;21.25;48.72
64895;BME280;51588;53.702;10.208;2023-11-21T00:23:17;100647.19;;;21.25;48.93
64895;BME280;51588;53.702;10.208;2023-11-21T00:25:45;100656.34;;;21.24;48.74
64895;BME280;51588;53.702;10.208;2023-11-21T00:28:11;100664.47;;;21.24;48.85
64895;BME280;51588;53.702;10.208;2023-11-21T00:30:38;100663.03;;;21.22;48.88
64895;BME280;51588;53.702;10.208;2023-11-21T00:33:04;100671.16;;;21.22;48.62
64895;BME280;51588;53.702;10.208;2023-11-21T00:35:31;100671.38;;;21.20;48.84
64895;BME280;51588;53.702;10.208;2023-11-21T00:38:00;100672.22;;;21.21;48.81
64895;BME280;51588;53.702;10.208;2023-11-21T00:40:26;100677.03;;;21.19;48.60
64895;BME280;51588;53.702;10.208;2023-11-21T00:42:54;100674.31;;;21.19;48.61
64895;BME280;51588;53.702;10.208;2023-11-21T00:45:21;100674.78;;;21.16;48.83
64895;BME280;51588;53.702;10.208;2023-11-21T00:47:48;100677.50;;;21.16;48.76
64895;BME280;51588;53.702;10.208;2023-11-21T00:50:15;100678.53;;;21.15;48.45
64895;BME280;51588;53.702;10.208;2023-11-21T00:52:41;100689.34;;;21.15;48.47
64895;BME280;51588;53.702;10.208;2023-11-21T00:55:11;100691.44;;;21.13;48.59
64895;BME280;51588;53.702;10.208;2023-11-21T00:57:43;100702.25;;;21.13;48.41
64895;BME280;51588;53.702;10.208;2023-11-21T01:00:12;100703.34;;;21.12;48.56
64895;BME280;51588;53.702;10.208;2023-11-21T01:02:42;100708.94;;;21.10;48.56
64895;BME280;51588;53.702;10.208;2023-11-21T01:05:09;100710.81;;;21.10;48.67
64895;BME280;51588;53.702;10.208;2023-11-21T01:07:36;100717.25;;;21.09;48.43
64895;BME280;51588;53.702;10.208;2023-11-21T01:10:03;100713.75;;;21.08;48.65
64895;BME280;51588;53.702;10.208;2023-11-21T01:12:32;100717.50;;;21.07;48.62
64895;BME280;51588;53.702;10.208;2023-11-21T01:14:59;100719.38;;;21.07;48.48
64895;BME280;51588;53.702;10.208;2023-11-21T01:17:29;100716.06;;;21.05;48.53
64895;BME280;51588;53.702;10.208;2023-11-21T01:19:55;100726.06;;;21.04;48.60
64895;BME280;51588;53.702;10.208;2023-11-21T01:22:23;100725.25;;;21.04;48.44
64895;BME280;51588;53.702;10.208;2023-11-21T01:24:51;100734.19;;;21.04;48.52
64895;BME280;51588;53.702;10.208;2023-11-21T01:27:17;100733.56;;;21.02;48.57
64895;BME280;51588;53.702;10.208;2023-11-21T01:29:47;100731.91;;;21.01;48.27
64895;BME280;51588;53.702;10.208;2023-11-21T01:32:13;100739.22;;;21.01;48.38
64895;BME280;51588;53.702;10.208;2023-11-21T01:34:41;100744.63;;;21.01;48.46
64895;BME280;51588;53.702;10.208;2023-11-21T01:37:08;100744.84;;;20.99;48.40
64895;BME280;51588;53.702;10.208;2023-11-21T01:39:37;100754.81;;;20.99;48.21
64895;BME280;51588;53.702;10.208;2023-11-21T01:42:05;100746.13;;;20.97;48.36
64895;BME280;51588;53.702;10.208;2023-11-21T01:44:31;100751.53;;;20.97;48.37
64895;BME280;51588;53.702;10.208;2023-11-21T01:46:58;100759.84;;;20.95;48.37
64895;BME280;51588;53.702;10.208;2023-11-21T01:49:30;100759.03;;;20.95;48.58
64895;BME280;51588;53.702;10.208;2023-11-21T01:52:02;100758.19;;;20.94;48.30
64895;BME280;51588;53.702;10.208;2023-11-21T01:54:29;100762.75;;;20.93;48.42
64895;BME280;51588;53.702;10.208;2023-11-21T01:56:57;100755.72;;;20.92;48.33
64895;BME280;51588;53.702;10.208;2023-11-21T01:59:34;100763.00;;;20.92;48.20
64895;BME280;51588;53.702;10.208;2023-11-21T02:02:04;100758.63;;;20.91;48.13
64895;BME280;51588;53.702;10.208;2023-11-21T02:04:31;100771.31;;;20.90;48.13
64895;BME280;51588;53.702;10.208;2023-11-21T02:06:58;100771.56;;;20.89;48.27
64895;BME280;51588;53.702;10.208;2023-11-21T02:09:27;100778.03;;;20.88;48.17
64895;BME280;51588;53.702;10.208;2023-11-21T02:11:56;100779.06;;;20.87;48.16
64895;BME280;51588;53.702;10.208;2023-11-21T02:14:25;100786.34;;;20.86;48.29
64895;BME280;51588;53.702;10.208;2023-11-21T02:16:53;100780.94;;;20.86;48.10
64895;BME280;51588;53.702;10.208;2023-11-21T02:19:21;100779.28;;;20.85;48.28
64895;BME280;51588;53.702;10.208;2023-11-21T02:21:49;100787.38;;;20.85;48.15
64895;BME280;51588;53.702;10.208;2023-11-21T02:24:19;100793.84;;;20.84;47.93
64895;BME280;51588;53.702;10.208;2023-11-21T02:26:46;100798.44;;;20.84;48.31
64895;BME280;51588;53.702;10.208;2023-11-21T02:29:13;100807.59;;;20.83;47.91
64895;BME280;51588;53.702;10.208;2023-11-21T02:31:42;100809.47;;;20.82;48.03
64895;BME280;51588;53.702;10.208;2023-11-21T02:34:13;100804.28;;;20.81;47.99
64895;BME280;51588;53.702;10.208;2023-11-21T02:36:40;100807.78;;;20.81;48.11
64895;BME280;51588;53.702;10.208;2023-11-21T02:39:07;100703.31;;;20.13;47.88
64895;BME280;51588;53.702;10.208;2023-11-21T02:41:36;100814.28;;;20.80;47.71
64895;BME280;51588;53.702;10.208;2023-11-21T02:44:03;100813.66;;;20.78;48.10
64895;BME280;51588;53.702;10.208;2023-11-21T02:46:31;100818.03;;;20.79;48.07
64895;BME280;51588;53.702;10.208;2023-11-21T02:48:59;100820.94;;;20.78;47.83
64895;BME280;51588;53.702;10.208;2023-11-21T02:51:25;100814.09;;;20.75;47.82
64895;BME280;51588;53.702;10.208;2023-11-21T02:53:52;100816.81;;;20.75;47.84
64895;BME280;51588;53.702;10.208;2023-11-21T02:56:18;100821.38;;;20.75;47.72
64895;BME280;51588;53.702;10.208;2023-11-21T02:58:46;100825.94;;;20.74;48.08
64895;BME280;51588;53.702;10.208;2023-11-21T03:01:13;100824.06;;;20.75;47.81
64895;BME280;51588;53.702;10.208;2023-11-21T03:03:40;100827.03;;;20.73;47.84
64895;BME280;51588;53.702;10.208;2023-11-21T03:06:07;100825.34;;;20.72;47.88
64895;BME280;51588;53.702;10.208;2023-11-21T03:08:33;100819.94;;;20.72;47.66
64895;BME280;51588;53.702;10.208;2023-11-21T03:11:00;100824.72;;;20.70;47.78
64895;BME280;51588;53.702;10.208;2023-11-21T03:13:28;100831.81;;;20.71;47.81
64895;BME280;51588;53.702;10.208;2023-11-21T03:15:56;100838.25;;;20.70;47.57
64895;BME280;51588;53.702;10.208;2023-11-21T03:18:22;100842.03;;;20.69;47.62
64895;BME280;51588;53.702;10.208;2023-11-21T03:20:52;100838.50;;;20.69;47.62
64895;BME280;51588;53.702;10.208;2023-11-21T03:23:18;100830.81;;;20.66;47.90
64895;BME280;51588;53.702;10.208;2023-11-21T03:25:48;100842.22;;;20.68;47.85
64895;BME280;51588;53.702;10.208;2023-11-21T03:28:14;100847.03;;;20.66;47.73
64895;BME280;51588;53.702;10.208;2023-11-21T03:30:41;100855.16;;;20.66;47.95
64895;BME280;51588;53.702;10.208;2023-11-21T03:33:11;100859.72;;;20.65;47.58
64895;BME280;51588;53.702;10.208;2023-11-21T03:35:41;100875.13;;;20.65;47.67
64895;BME280;51588;53.702;10.208;2023-11-21T03:38:13;100878.84;;;20.64;47.54
64895;BME280;51588;53.702;10.208;2023-11-21T03:40:39;100884.25;;;20.64;47.68
64895;BME280;51588;53.702;10.208;2023-11-21T03:43:06;100879.88;;;20.63;47.79
64895;BME280;51588;53.702;10.208;2023-11-21T03:45:33;100888.22;;;20.61;47.73
64895;BME280;51588;53.702;10.208;2023-11-21T03:47:59;100893.63;;;20.61;47.57
64895;BME280;51588;53.702;10.208;2023-11-21T03:50:42;100896.34;;;20.61;47.86
64895;BME280;51588;53.702;10.208;2023-11-21T03:53:09;100899.25;;;20.60;47.90
64895;BME280;51588;53.702;10.208;2023-11-21T03:55:35;100899.25;;;20.60;47.72
64895;BME280;51588;53.702;10.208;2023-11-21T03:58:02;100901.13;;;20.59;47.70
64895;BME280;51588;53.702;10.208;2023-11-21T04:00:29;100903.00;;;20.59;47.55
64895;BME280;51588;53.702;10.208;2023-11-21T04:02:55;100908.63;;;20.57;47.63
64895;BME280;51588;53.702;10.208;2023-11-21T04:05:22;100914.03;;;20.57;47.60
64895;BME280;51588;53.702;10.208;2023-11-21T04:07:51;100917.78;;;20.56;47.49
64895;BME280;51588;53.702;10.208;2023-11-21T04:10:17;100904.75;;;20.40;47.59
64895;BME280;51588;53.702;10.208;2023-11-21T04:12:50;100923.38;;;20.55;47.69
64895;BME280;51588;53.702;10.208;2023-11-21T04:15:16;100924.47;;;20.54;47.64
64895;BME280;51588;53.702;10.208;2023-11-21T04:17:43;100927.16;;;20.54;47.73
64895;BME280;51588;53.702;10.208;2023-11-21T04:20:11;100936.09;;;20.54;47.79
64895;BME280;51588;53.702;10.208;2023-11-21T04:22:38;100937.13;;;20.53;47.63
64895;BME280;51588;53.702;10.208;2023-11-21T04:25:09;100932.38;;;20.49;47.45
64895;BME280;51588;53.702;10.208;2023-11-21T04:27:38;100940.88;;;20.52;47.61
64895;BME280;51588;53.702;10.208;2023-11-21T04:30:06;100946.47;;;20.51;47.50
64895;BME280;51588;53.702;10.208;2023-11-21T04:32:33;100942.16;;;20.50;47.35
64895;BME280;51588;53.702;10.208;2023-11-21T04:35:00;100954.81;;;20.49;47.62
64895;BME280;51588;53.702;10.208;2023-11-21T04:37:26;100957.53;;;20.49;47.50
64895;BME280;51588;53.702;10.208;2023-11-21T04:39:53;100958.56;;;20.48;47.58
64895;BME280;51588;53.702;10.208;2023-11-21T04:42:27;100957.72;;;20.48;47.55
64895;BME280;51588;53.702;10.208;2023-11-21T04:44:57;100963.13;;;20.48;47.75
64895;BME280;51588;53.702;10.208;2023-11-21T04:47:23;100964.19;;;20.47;47.56
64895;BME280;51588;53.702;10.208;2023-11-21T04:49:50;100963.38;;;20.46;47.49
64895;BME280;51588;53.702;10.208;2023-11-21T04:52:19;100970.63;;;20.46;47.45
64895;BME280;51588;53.702;10.208;2023-11-21T04:54:46;100966.28;;;20.44;47.26
64895;BME280;51588;53.702;10.208;2023-11-21T04:57:13;100979.78;;;20.44;47.46
64895;BME280;51588;53.702;10.208;2023-11-21T04:59:41;100872.38;;;19.76;47.24
64895;BME280;51588;53.702;10.208;2023-11-21T05:02:08;100988.94;;;20.43;47.46
64895;BME280;51588;53.702;10.208;2023-11-21T05:04:34;100935.88;;;19.85;47.25
64895;BME280;51588;53.702;10.208;2023-11-21T05:07:00;100988.72;;;20.45;47.26
64895;BME280;51588;53.702;10.208;2023-11-21T05:09:27;100994.97;;;20.46;47.18
64895;BME280;51588;53.702;10.208;2023-11-21T05:12:03;100999.53;;;20.45;46.93
64895;BME280;51588;53.702;10.208;2023-11-21T05:14:30;101005.53;;;20.47;47.06
64895;BME280;51588;53.702;10.208;2023-11-21T05:17:00;101007.00;;;20.50;46.82
64895;BME280;51588;53.702;10.208;2023-11-21T05:19:27;101007.84;;;20.50;47.04
64895;BME280;51588;53.702;10.208;2023-11-21T05:21:54;101011.78;;;20.54;47.02
64895;BME280;51588;53.702;10.208;2023-11-21T05:24:23;101015.09;;;20.56;47.02
64895;BME280;51588;53.702;10.208;2023-11-21T05:26:50;101019.44;;;20.57;46.95
64895;BME280;51588;53.702;10.208;2023-11-21T05:29:16;101015.72;;;20.58;47.30
64895;BME280;51588;53.702;10.208;2023-11-21T05:31:43;101021.53;;;20.62;47.23
64895;BME280;51588;53.702;10.208;2023-11-21T05:34:11;101017.75;;;20.63;47.41
64895;BME280;51588;53.702;10.208;2023-11-21T05:36:37;101021.09;;;20.65;47.09
64895;BME280;51588;53.702;10.208;2023-11-21T05:39:04;101020.06;;;20.66;47.16
64895;BME280;51588;53.702;10.208;2023-11-21T05:41:30;101021.69;;;20.67;47.13
64895;BME280;51588;53.702;10.208;2023-11-21T05:44:03;101028.56;;;20.69;47.31
64895;BME280;51588;53.702;10.208;2023-11-21T05:46:35;101032.91;;;20.70;47.12
64895;BME280;51588;53.702;10.208;2023-11-21T05:49:04;101037.28;;;20.71;47.04
64895;BME280;51588;53.702;10.208;2023-11-21T05:51:32;101045.78;;;20.75;47.28
64895;BME280;51588;53.702;10.208;2023-11-21T05:53:59;101048.28;;;20.76;47.20
64895;BME280;51588;53.702;10.208;2023-11-21T05:56:25;101048.28;;;20.76;47.16
64895;BME280;51588;53.702;10.208;2023-11-21T05:58:52;101055.97;;;20.79;47.37
64895;BME280;51588;53.702;10.208;2023-11-21T06:01:19;101070.09;;;20.81;47.25
64895;BME280;51588;53.702;10.208;2023-11-21T06:03:45;101074.25;;;20.84;47.59
64895;BME280;51588;53.702;10.208;2023-11-21T06:06:12;101077.78;;;20.84;47.98
64895;BME280;51588;53.702;10.208;2023-11-21T06:08:43;101077.56;;;20.86;48.41
64895;BME280;51588;53.702;10.208;2023-11-21T06:11:09;101080.91;;;20.88;49.20
64895;BME280;51588;53.702;10.208;2023-11-21T06:13:37;101090.44;;;20.90;50.20
64895;BME280;51588;53.702;10.208;2023-11-21T06:16:11;101094.81;;;20.91;50.79
64895;BME280;51588;53.702;10.208;2023-11-21T06:18:40;101093.78;;;20.92;51.14
64895;BME280;51588;53.702;10.208;2023-11-21T06:21:09;101098.13;;;20.93;51.48
64895;BME280;51588;53.702;10.208;2023-11-21T06:23:36;101101.47;;;20.96;51.64
64895;BME280;51588;53.702;10.208;2023-11-21T06:26:06;101105.19;;;20.95;51.68
64895;BME280;51588;53.702;10.208;2023-11-21T06:28:34;101076.75;;;20.79;51.48
64895;BME280;51588;53.702;10.208;2023-11-21T06:31:01;101105.00;;;20.96;51.43
64895;BME280;51588;53.702;10.208;2023-11-21T06:33:30;101114.16;;;20.95;51.41
64895;BME280;51588;53.702;10.208;2023-11-21T06:35:59;101120.41;;;20.96;51.33
64895;BME280;51588;53.702;10.208;2023-11-21T06:38:28;101132.03;;;20.96;51.23
64895;BME280;51588;53.702;10.208;2023-11-21T06:40:57;101134.53;;;20.98;51.28
64895;BME280;51588;53.702;10.208;2023-11-21T06:43:28;101136.38;;;20.97;51.27
64895;BME280;51588;53.702;10.208;2023-11-21T06:45:56;101138.28;;;20.97;50.86
64895;BME280;51588;53.702;10.208;2023-11-21T06:48:23;101140.16;;;20.96;51.15
64895;BME280;51588;53.702;10.208;2023-11-21T06:50:49;101145.34;;;20.98;50.95
64895;BME280;51588;53.702;10.208;2023-11-21T06:53:17;101147.22;;;20.97;50.97
64895;BME280;51588;53.702;10.208;2023-11-21T06:55:44;101157.00;;;20.98;50.68
64895;BME280;51588;53.702;10.208;2023-11-21T06:58:11;101148.69;;;21.00;51.03
64895;BME280;51588;53.702;10.208;2023-11-21T07:00:43;101103.59;;;20.74;51.15
64895;BME280;51588;53.702;10.208;2023-11-21T07:03:12;101159.66;;;21.05;51.17
64895;BME280;51588;53.702;10.208;2023-11-21T07:05:38;101175.09;;;21.04;51.01
64895;BME280;51588;53.702;10.208;2023-11-21T07:08:05;101185.69;;;21.06;50.94
64895;BME280;51588;53.702;10.208;2023-11-21T07:10:32;101184.44;;;21.08;50.84
64895;BME280;51588;53.702;10.208;2023-11-21T07:13:00;101187.97;;;21.09;50.69
64895;BME280;51588;53.702;10.208;2023-11-21T07:15:26;101193.16;;;21.10;50.60
64895;BME280;51588;53.702;10.208;2023-11-21T07:17:54;101194.00;;;21.11;50.62
64895;BME280;51588;53.702;10.208;2023-11-21T07:20:21;101193.84;;;21.12;50.40
64895;BME280;51588;53.702;10.208;2023-11-21T07:22:48;101210.66;;;21.14;50.25
64895;BME280;51588;53.702;10.208;2023-11-21T07:25:15;101175.31;;;20.89;50.40
64895;BME280;51588;53.702;10.208;2023-11-21T07:27:42;101224.78;;;21.16;50.12
64895;BME280;51588;53.702;10.208;2023-11-21T07:30:09;101232.91;;;21.16;49.83
64895;BME280;51588;53.702;10.208;2023-11-21T07:32:37;101230.00;;;21.18;49.61
64895;BME280;51588;53.702;10.208;2023-11-21T07:35:07;101228.97;;;21.19;49.37
64895;BME280;51588;53.702;10.208;2023-11-21T07:37:33;101231.69;;;21.19;49.38
64895;BME280;51588;53.702;10.208;2023-11-21T07:40:00;101233.56;;;21.18;49.32
64895;BME280;51588;53.702;10.208;2023-11-21T07:42:26;101244.16;;;21.20;49.29
64895;BME280;51588;53.702;10.208;2023-11-21T07:44:53;101236.06;;;21.20;49.27
64895;BME280;51588;53.702;10.208;2023-11-21T07:47:19;101238.75;;;21.20;49.20
64895;BME280;51588;53.702;10.208;2023-11-21T07:49:46;101240.41;;;21.21;49.29
64895;BME280;51588;53.702;10.208;2023-11-21T07:52:14;101249.59;;;21.20;49.16
64895;BME280;51588;53.702;10.208;2023-11-21T07:54:41;101245.81;;;21.21;49.23
64895;BME280;51588;53.702;10.208;2023-11-21T07:57:08;101243.34;;;21.19;49.31
64895;BME280;51588;53.702;10.208;2023-11-21T07:59:36;101246.66;;;21.21;49.23
64895;BME280;51588;53.702;10.208;2023-11-21T08:02:03;101245.22;;;21.19;48.97
64895;BME280;51588;53.702;10.208;2023-11-21T08:04:32;101235.22;;;21.13;48.91
64895;BME280;51588;53.702;10.208;2023-11-21T08:06:59;101248.75;;;21.19;49.07
64895;BME280;51588;53.702;10.208;2023-11-21T08:09:27;101251.47;;;21.19;48.89
64895;BME280;51588;53.702;10.208;2023-11-21T08:11:54;101264.16;;;21.19;48.54
64895;BME280;51588;53.702;10.208;2023-11-21T08:14:20;101266.03;;;21.18;48.56
64895;BME280;51588;53.702;10.208;2023-11-21T08:16:47;101276.84;;;21.18;48.61
64895;BME280;51588;53.702;10.208;2023-11-21T08:19:13;101282.25;;;21.18;48.51
64895;BME280;51588;53.702;10.208;2023-11-21T08:21:41;101290.38;;;21.18;48.39
64895;BME280;51588;53.702;10.208;2023-11-21T08:24:08;101292.25;;;21.18;48.52
64895;BME280;51588;53.702;10.208;2023-11-21T08:26:37;101299.31;;;21.19;48.61
64895;BME280;51588;53.702;10.208;2023-11-21T08:29:10;101296.38;;;21.20;48.54
64895;BME280;51588;53.702;10.208;2023-11-21T08:31:37;101298.06;;;21.21;48.54
64895;BME280;51588;53.702;10.208;2023-11-21T08:34:03;101294.53;;;21.21;48.56
64895;BME280;51588;53.702;10.208;2023-11-21T08:36:30;101305.16;;;21.22;48.90
64895;BME280;51588;53.702;10.208;2023-11-21T08:38:59;101299.72;;;21.22;48.81
64895;BME280;51588;53.702;10.208;2023-11-21T08:41:26;101310.31;;;21.24;48.75
64895;BME280;51588;53.702;10.208;2023-11-21T08:43:57;101317.41;;;21.25;48.61
64895;BME280;51588;53.702;10.208;2023-11-21T08:46:23;101321.78;;;21.26;48.53
64895;BME280;51588;53.702;10.208;2023-11-21T08:48:51;101320.75;;;21.27;48.53
64895;BME280;51588;53.702;10.208;2023-11-21T08:51:18;101325.94;;;21.28;48.32
64895;BME280;51588;53.702;10.208;2023-11-21T08:53:45;101336.75;;;21.28;48.24
64895;BME280;51588;53.702;10.208;2023-11-21T08:56:13;101343.84;;;21.29;48.24
64895;BME280;51588;53.702;10.208;2023-11-21T08:58:40;101350.09;;;21.30;48.25
64895;BME280;51588;53.702;10.208;2023-11-21T09:01:08;101354.47;;;21.31;48.16
64895;BME280;51588;53.702;10.208;2023-11-21T09:03:34;101360.72;;;21.31;48.13
64895;BME280;51588;53.702;10.208;2023-11-21T09:06:02;101359.06;;;21.30;47.96
64895;BME280;51588;53.702;10.208;2023-11-21T09:08:29;101359.66;;;21.32;47.76
64895;BME280;51588;53.702;10.208;2023-11-21T09:10:55;101366.75;;;21.33;47.80
64895;BME280;51588;53.702;10.208;2023-11-21T09:13:22;101359.66;;;21.32;47.79
64895;BME280;51588;53.702;10.208;2023-11-21T09:15:50;101368.63;;;21.33;47.68
64895;BME280;51588;53.702;10.208;2023-11-21T09:18:20;101369.25;;;21.35;47.77
64895;BME280;51588;53.702;10.208;2023-11-21T09:20:47;101373.00;;;21.34;47.62
64895;BME280;51588;53.702;10.208;2023-11-21T09:23:14;101381.94;;;21.34;47.71
64895;BME280;51588;53.702;10.208;2023-11-21T09:25:41;101383.81;;;21.34;47.55
64895;BME280;51588;53.702;10.208;2023-11-21T09:28:11;101382.97;;;21.33;47.63
64895;BME280;51588;53.702;10.208;2023-11-21T09:30:38;101395.06;;;21.31;47.30
64895;BME280;51588;53.702;10.208;2023-11-21T09:33:04;101399.41;;;21.32;47.56
64895;BME280;51588;53.702;10.208;2023-11-21T09:35:34;101388.59;;;21.32;47.47
64895;BME280;51588;53.702;10.208;2023-11-21T09:38:01;101398.38;;;21.33;47.35
64895;BME280;51588;53.702;10.208;2023-11-21T09:40:31;101403.78;;;21.33;47.68
64895;BME280;51588;53.702;10.208;2023-11-21T09:42:58;101407.53;;;21.32;47.50
64895;BME280;51588;53.702;10.208;2023-11-21T09:45:28;101412.16;;;21.31;47.46
64895;BME280;51588;53.702;10.208;2023-11-21T09:47:57;101421.06;;;21.32;47.50
64895;BME280;51588;53.702;10.208;2023-11-21T09:50:24;101417.56;;;21.31;47.49
64895;BME280;51588;53.702;10.208;2023-11-21T09:52:58;101423.78;;;21.32;47.59
64895;BME280;51588;53.702;10.208;2023-11-21T09:55:34;101441.91;;;21.31;47.29
64895;BME280;51588;53.702;10.208;2023-11-21T09:58:08;101439.41;;;21.30;47.21
64895;BME280;51588;53.702;10.208;2023-11-21T10:00:39;101444.81;;;21.30;47.33
64895;BME280;51588;53.702;10.208;2023-11-21T10:03:06;101445.44;;;21.32;47.60
64895;BME280;51588;53.702;10.208;2023-11-21T10:05:36;101441.91;;;21.31;47.46
64895;BME280;51588;53.702;10.208;2023-11-21T10:08:08;101448.97;;;21.32;47.50
64895;BME280;51588;53.702;10.208;2023-11-21T10:10:36;101445.44;;;21.32;47.68
64895;BME280;51588;53.702;10.208;2023-11-21T10:13:04;101453.34;;;21.33;47.25
64895;BME280;51588;53.702;10.208;2023-11-21T10:15:33;101446.91;;;21.34;47.46
64895;BME280;51588;53.702;10.208;2023-11-21T10:18:02;101452.94;;;21.36;47.58
64895;BME280;51588;53.702;10.208;2023-11-21T10:20:30;101449.38;;;21.36;47.51
64895;BME280;51588;53.702;10.208;2023-11-21T10:22:59;101451.91;;;21.37;47.36
64895;BME280;51588;53.702;10.208;2023-11-21T10:25:28;101456.28;;;21.38;47.32
64895;BME280;51588;53.702;10.208;2023-11-21T10:27:57;101457.91;;;21.39;47.19
64895;BME280;51588;53.702;10.208;2023-11-21T10:30:32;101460.63;;;21.39;47.10
64895;BME280;51588;53.702;10.208;2023-11-21T10:33:02;101466.69;;;21.42;47.09
64895;BME280;51588;53.702;10.208;2023-11-21T10:35:48;101461.28;;;21.42;47.11
64895;BME280;51588;53.702;10.208;2023-11-21T10:38:16;101459.41;;;21.42;46.77
64895;BME280;51588;53.702;10.208;2023-11-21T10:40:47;101470.22;;;21.42;47.09
64895;BME280;51588;53.702;10.208;2023-11-21T10:43:15;101453.53;;;21.32;46.93
64895;BME280;51588;53.702;10.208;2023-11-21T10:45:47;101481.06;;;21.42;46.56
64895;BME280;51588;53.702;10.208;2023-11-21T10:48:14;101484.59;;;21.43;46.51
64895;BME280;51588;53.702;10.208;2023-11-21T10:50:42;101474.59;;;21.43;46.40
64895;BME280;51588;53.702;10.208;2023-11-21T10:53:11;101478.34;;;21.42;46.67
64895;BME280;51588;53.702;10.208;2023-11-21T10:55:39;101473.78;;;21.43;46.53
64895;BME280;51588;53.702;10.208;2023-11-21T10:58:07;101484.59;;;21.43;46.44
64895;BME280;51588;53.702;10.208;2023-11-21T11:00:37;101485.44;;;21.43;46.46
64895;BME280;51588;53.702;10.208;2023-11-21T11:03:05;101488.34;;;21.42;46.22
64895;BME280;51588;53.702;10.208;2023-11-21T11:05:40;101488.34;;;21.42;46.46
64895;BME280;51588;53.702;10.208;2023-11-21T11:08:12;101488.97;;;21.37;45.18
64895;BME280;51588;53.702;10.208;2023-11-21T11:10:44;101490.63;;;21.38;45.62
64895;BME280;51588;53.702;10.208;2023-11-21T11:13:13;101499.59;;;21.38;45.90
64895;BME280;51588;53.702;10.208;2023-11-21T11:15:41;101494.38;;;21.37;45.70
64895;BME280;51588;53.702;10.208;2023-11-21T11:18:08;101497.91;;;21.37;46.00
64895;BME280;51588;53.702;10.208;2023-11-21T11:20:37;101490.63;;;21.38;45.73
64895;BME280;51588;53.702;10.208;2023-11-21T11:23:33;101498.75;;;21.38;45.85
64895;BME280;51588;53.702;10.208;2023-11-21T11:26:12;101502.28;;;21.38;46.17
64895;BME280;51588;53.702;10.208;2023-11-21T11:28:54;101488.97;;;21.37;45.96
64895;BME280;51588;53.702;10.208;2023-11-21T11:31:29;101493.53;;;21.36;46.11
64895;BME280;51588;53.702;10.208;2023-11-21T11:33:59;101498.94;;;21.36;45.86
64895;BME280;51588;53.702;10.208;2023-11-21T11:36:31;101500.63;;;21.37;46.06
64895;BME280;51588;53.702;10.208;2023-11-21T11:39:00;101497.91;;;21.37;46.09
64895;BME280;51588;53.702;10.208;2023-11-21T11:41:30;101497.06;;;21.37;46.17
64895;BME280;51588;53.702;10.208;2023-11-21T11:43:59;101503.31;;;21.37;46.20
64895;BME280;51588;53.702;10.208;2023-11-21T11:46:41;101506.03;;;21.37;46.17
64895;BME280;51588;53.702;10.208;2023-11-21T11:49:10;101505.84;;;21.39;46.17
64895;BME280;51588;53.702;10.208;2023-11-21T11:51:40;101509.34;;;21.39;46.09
64895;BME280;51588;53.702;10.208;2023-11-21T11:54:06;101513.72;;;21.41;46.30
64895;BME280;51588;53.702;10.208;2023-11-21T11:56:34;101511.03;;;21.41;46.07
64895;BME280;51588;53.702;10.208;2023-11-21T11:59:04;101510.84;;;21.42;46.16
64895;BME280;51588;53.702;10.208;2023-11-21T12:01:34;101518.13;;;21.42;46.06
64895;BME280;51588;53.702;10.208;2023-11-21T12:04:25;101518.94;;;21.42;46.00
64895;BME280;51588;53.702;10.208;2023-11-21T12:07:03;101522.25;;;21.44;45.86
64895;BME280;51588;53.702;10.208;2023-11-21T12:09:31;101525.81;;;21.45;46.03
64895;BME280;51588;53.702;10.208;2023-11-21T12:12:02;101517.91;;;21.36;45.92
64895;BME280;51588;53.702;10.208;2023-11-21T12:14:32;101534.78;;;21.45;45.93
64895;BME280;51588;53.702;10.208;2023-11-21T12:16:59;101544.56;;;21.46;46.13
64895;BME280;51588;53.702;10.208;2023-11-21T12:19:28;101547.28;;;21.46;46.01
64895;BME280;51588;53.702;10.208;2023-11-21T12:21:54;101448.91;;;20.80;46.00
64895;BME280;51588;53.702;10.208;2023-11-21T12:24:24;101554.56;;;21.46;45.94
64895;BME280;51588;53.702;10.208;2023-11-21T12:26:54;101551.84;;;21.46;46.07
64895;BME280;51588;53.702;10.208;2023-11-21T12:29:20;101548.31;;;21.45;46.04
64895;BME280;51588;53.702;10.208;2023-11-21T12:31:50;101553.72;;;21.45;46.08
64895;BME280;51588;53.702;10.208;2023-11-21T12:34:16;101564.34;;;21.47;45.91
64895;BME280;51588;53.702;10.208;2023-11-21T12:36:43;101570.81;;;21.46;45.92
64895;BME280;51588;53.702;10.208;2023-11-21T12:39:10;101581.63;;;21.46;46.13
64895;BME280;51588;53.702;10.208;2023-11-21T12:41:37;101585.38;;;21.45;45.95
64895;BME280;51588;53.702;10.208;2023-11-21T12:44:04;101581.00;;;21.44;46.07
64895;BME280;51588;53.702;10.208;2023-11-21T12:46:36;101588.50;;;21.42;46.02